createdAt,value
2023-02-20T00:00:02.561Z,97330.31
2023-02-20T00:02:29.074Z,97331.66
2023-02-20T00:04:55.604Z,97332.44
2023-02-20T00:07:22.234Z,97322.31
2023-02-20T00:09:48.737Z,97326.50
2023-02-20T00:12:15.278Z,97330.66
2023-02-20T00:14:41.859Z,97328.91
2023-02-20T00:17:08.337Z,97334.84
2023-02-20T00:19:34.835Z,97328.09
2023-02-20T00:22:01.406Z,97329.25
2023-02-20T00:24:28.012Z,97325.25
2023-02-20T00:26:54.575Z,97324.03
2023-02-20T00:29:23.296Z,97318.25
2023-02-20T00:31:57.685Z,97318.78
2023-02-20T00:34:27.776Z,97321.91
2023-02-20T00:36:54.456Z,97320.66
2023-02-20T00:39:21.083Z,97310.72
2023-02-20T00:41:47.731Z,97307.53
2023-02-20T00:44:14.214Z,97316.22
2023-02-20T00:46:40.741Z,97315.00
2023-02-20T00:49:07.327Z,97316.94
2023-02-20T00:51:33.980Z,97322.91
2023-02-20T00:54:00.614Z,97316.34
2023-02-20T00:56:27.143Z,97325.66
2023-02-20T00:58:54.079Z,97314.72
2023-02-20T01:01:20.790Z,97310.56
2023-02-20T01:03:47.465Z,97307.81
2023-02-20T01:06:14.206Z,97303.81
2023-02-20T01:08:40.769Z,97303.00
2023-02-20T01:11:07.511Z,97307.34
2023-02-20T01:13:34.115Z,97310.28
2023-02-20T01:16:00.655Z,97312.88
2023-02-20T01:18:27.559Z,97315.44
2023-02-20T01:20:54.206Z,97317.84
2023-02-20T01:23:20.788Z,97305.94
2023-02-20T01:25:47.355Z,97312.06
2023-02-20T01:28:13.907Z,97308.53
2023-02-20T01:30:40.423Z,97304.97
2023-02-20T01:33:06.985Z,97306.56
2023-02-20T01:35:33.559Z,97301.41
2023-02-20T01:38:00.236Z,97302.81
2023-02-20T01:40:27.818Z,97304.25
2023-02-20T01:42:54.386Z,97303.63
2023-02-20T01:45:23.674Z,97295.09
2023-02-20T01:47:53.047Z,97299.44
2023-02-20T01:50:23.808Z,97302.19
2023-02-20T01:52:54.444Z,97295.00
2023-02-20T01:55:33.020Z,97298.16
2023-02-20T01:58:08.073Z,97296.28
2023-02-20T02:00:34.863Z,97300.81
2023-02-20T02:03:07.267Z,97304.75
2023-02-20T02:05:34.115Z,97297.38
2023-02-20T02:08:03.674Z,97308.66
2023-02-20T02:10:36.609Z,97299.50
2023-02-20T02:13:03.385Z,97299.66
2023-02-20T02:15:29.921Z,97305.81
2023-02-20T02:18:02.471Z,97296.22
2023-02-20T02:20:43.978Z,97296.91
2023-02-20T02:23:35.165Z,97302.78
2023-02-20T02:26:13.812Z,97306.06
2023-02-20T02:29:08.692Z,97307.91
2023-02-20T02:31:56.485Z,97305.59
2023-02-20T02:34:26.158Z,97303.09
2023-02-20T02:37:20.429Z,97313.94
2023-02-20T02:39:59.786Z,97301.13
2023-02-20T02:42:28.940Z,97305.03
2023-02-20T02:45:03.586Z,97304.75
2023-02-20T02:47:37.519Z,97306.84
2023-02-20T02:50:21.043Z,97314.75
2023-02-20T02:52:50.613Z,97306.22
2023-02-20T02:55:28.925Z,97297.88
2023-02-20T02:57:55.777Z,97298.69
2023-02-20T03:00:24.232Z,97299.47
2023-02-20T03:02:56.802Z,97296.91
2023-02-20T03:05:26.499Z,97297.25
2023-02-20T03:07:57.915Z,97299.03
2023-02-20T03:10:26.052Z,97302.22
2023-02-20T03:12:54.165Z,97298.34
2023-02-20T03:15:30.022Z,97301.53
2023-02-20T03:18:12.954Z,97293.28
2023-02-20T03:20:44.377Z,97293.75
2023-02-20T03:23:17.552Z,97282.31
2023-02-20T03:25:54.041Z,97277.44
2023-02-20T03:28:31.889Z,97285.63
2023-02-20T03:31:55.931Z,97284.47
2023-02-20T03:34:27.288Z,97289.25
2023-02-20T03:37:09.801Z,97286.06
2023-02-20T03:39:43.938Z,97282.53
2023-02-20T03:42:14.152Z,97278.97
2023-02-20T03:44:41.946Z,97280.56
2023-02-20T03:47:12.025Z,97280.56
2023-02-20T03:49:41.886Z,97271.41
2023-02-20T03:52:09.080Z,97279.94
2023-02-20T03:54:36.785Z,97282.53
2023-02-20T03:57:08.829Z,97281.53
2023-02-20T03:59:44.310Z,97287.66
2023-02-20T04:02:22.225Z,97279.16
2023-02-20T04:04:53.413Z,97266.78
2023-02-20T04:07:25.740Z,97276.56
2023-02-20T04:09:54.279Z,97276.41
2023-02-20T04:12:26.680Z,97275.41
2023-02-20T04:14:57.129Z,97281.03
2023-02-20T04:17:31.760Z,97281.47
2023-02-20T04:19:58.358Z,97275.97
2023-02-20T04:22:32.508Z,97280.75
2023-02-20T04:25:02.833Z,97281.19
2023-02-20T04:27:30.749Z,97274.88
2023-02-20T04:29:57.454Z,97274.53
2023-02-20T04:32:23.957Z,97276.75
2023-02-20T04:34:50.609Z,97279.31
2023-02-20T04:37:19.857Z,97278.34
2023-02-20T04:39:47.195Z,97278.97
2023-02-20T04:42:13.718Z,97276.03
2023-02-20T04:44:40.597Z,97282.44
2023-02-20T04:47:11.368Z,97273.56
2023-02-20T04:49:38.026Z,97276.41
2023-02-20T04:52:04.964Z,97275.06
2023-02-20T04:54:31.576Z,97270.53
2023-02-20T04:56:58.134Z,97276.13
2023-02-20T04:59:25.403Z,97278.53
2023-02-20T05:01:52.586Z,97268.03
2023-02-20T05:04:20.196Z,97274.63
2023-02-20T05:06:50.377Z,97275.06
2023-02-20T05:09:17.357Z,97270.72
2023-02-20T05:11:43.875Z,97273.72
2023-02-20T05:14:10.845Z,97270.97
2023-02-20T05:16:38.910Z,97277.38
2023-02-20T05:19:06.411Z,97279.56
2023-02-20T05:21:33.902Z,97272.88
2023-02-20T05:24:00.406Z,97272.50
2023-02-20T05:26:26.996Z,97272.78
2023-02-20T05:28:53.529Z,97269.84
2023-02-20T05:31:20.129Z,97262.72
2023-02-20T05:33:46.649Z,97265.56
2023-02-20T05:36:13.492Z,97266.78
2023-02-20T05:38:40.180Z,97263.66
2023-02-20T05:41:06.682Z,97269.88
2023-02-20T05:43:33.232Z,97269.31
2023-02-20T05:45:59.788Z,97264.78
2023-02-20T05:48:26.463Z,97266.19
2023-02-20T05:50:53.105Z,97262.28
2023-02-20T05:53:19.581Z,97259.16
2023-02-20T05:55:46.117Z,97260.34
2023-02-20T05:58:12.715Z,97263.97
2023-02-20T06:00:39.229Z,97268.75
2023-02-20T06:03:09.441Z,97264.03
2023-02-20T06:05:36.312Z,97266.06
2023-02-20T06:08:03.246Z,97268.09
2023-02-20T06:10:29.749Z,97269.50
2023-02-20T06:12:56.461Z,97262.97
2023-02-20T06:15:23.138Z,97260.81
2023-02-20T06:17:49.737Z,97266.84
2023-02-20T06:20:16.366Z,97260.88
2023-02-20T06:22:43.033Z,97263.88
2023-02-20T06:25:09.925Z,97270.28
2023-02-20T06:27:39.480Z,97268.13
2023-02-20T06:30:06.361Z,97275.09
2023-02-20T06:32:33.066Z,97269.19
2023-02-20T06:34:59.642Z,97271.81
2023-02-20T06:37:26.271Z,97253.78
2023-02-20T06:39:52.753Z,97265.94
2023-02-20T06:42:19.318Z,97256.44
2023-02-20T06:44:45.846Z,97259.88
2023-02-20T06:47:12.394Z,97251.34
2023-02-20T06:49:39.161Z,97259.94
2023-02-20T06:52:06.329Z,97263.53
2023-02-20T06:54:32.898Z,97257.59
2023-02-20T06:56:59.505Z,97264.38
2023-02-20T06:59:26.048Z,97257.03
2023-02-20T07:01:52.667Z,97259.84
2023-02-20T07:04:22.564Z,97260.88
2023-02-20T07:06:49.213Z,97259.50
2023-02-20T07:09:16.334Z,97260.28
2023-02-20T07:11:43.827Z,97255.16
2023-02-20T07:14:10.618Z,97268.88
2023-02-20T07:16:37.149Z,97263.50
2023-02-20T07:19:03.848Z,97262.94
2023-02-20T07:21:30.392Z,97266.53
2023-02-20T07:23:56.874Z,97262.56
2023-02-20T07:26:26.561Z,97270.50
2023-02-20T07:28:54.828Z,97262.97
2023-02-20T07:31:21.842Z,97251.84
2023-02-20T07:33:48.530Z,97252.66
2023-02-20T07:36:15.536Z,97264.19
2023-02-20T07:38:42.141Z,97262.22
2023-02-20T07:41:09.884Z,97258.03
2023-02-20T07:43:36.544Z,97255.84
2023-02-20T07:46:03.162Z,97260.22
2023-02-20T07:48:29.851Z,97253.44
2023-02-20T07:50:56.498Z,97252.66
2023-02-20T07:53:23.070Z,97247.91
2023-02-20T07:55:49.602Z,97255.44
2023-02-20T07:58:16.159Z,97249.88
2023-02-20T08:00:42.747Z,97249.47
2023-02-20T08:03:09.349Z,97257.66
2023-02-20T08:05:48.287Z,97249.69
2023-02-20T08:08:15.606Z,97247.69
2023-02-20T08:10:42.100Z,97254.66
2023-02-20T08:13:08.646Z,97261.25
2023-02-20T08:15:35.274Z,97265.03
2023-02-20T08:18:02.494Z,97256.25
2023-02-20T08:20:29.750Z,97256.66
2023-02-20T08:22:56.388Z,97259.34
2023-02-20T08:25:23.092Z,97263.50
2023-02-20T08:27:49.748Z,97268.66
2023-02-20T08:30:21.394Z,97270.34
2023-02-20T08:32:48.060Z,97278.84
2023-02-20T08:35:14.819Z,97269.50
2023-02-20T08:37:41.404Z,97266.59
2023-02-20T08:40:09.070Z,97268.50
2023-02-20T08:42:35.628Z,97265.50
2023-02-20T08:45:04.432Z,97267.16
2023-02-20T08:47:31.110Z,97270.03
2023-02-20T08:49:58.967Z,97272.66
2023-02-20T08:52:26.470Z,97282.47
2023-02-20T08:54:52.936Z,97283.28
2023-02-20T08:57:19.619Z,97284.72
2023-02-20T08:59:46.257Z,97269.56
2023-02-20T09:02:18.428Z,97271.06
2023-02-20T09:04:45.653Z,97286.72
2023-02-20T09:07:13.999Z,97282.81
2023-02-20T09:09:40.838Z,97282.06
2023-02-20T09:12:08.506Z,97280.75
2023-02-20T09:14:35.472Z,97277.00
2023-02-20T09:17:02.001Z,97278.44
2023-02-20T09:19:28.618Z,97276.81
2023-02-20T09:21:55.260Z,97272.31
2023-02-20T09:24:21.876Z,97275.25
2023-02-20T09:26:48.564Z,97271.16
2023-02-20T09:29:15.466Z,97277.91
2023-02-20T09:31:42.181Z,97278.66
2023-02-20T09:34:09.087Z,97272.88
2023-02-20T09:36:36.603Z,97277.03
2023-02-20T09:39:03.152Z,97281.47
2023-02-20T09:41:52.606Z,97277.09
2023-02-20T09:44:32.505Z,97279.88
2023-02-20T09:47:19.309Z,97271.03
2023-02-20T09:49:46.023Z,97283.94
2023-02-20T09:52:15.959Z,97281.25
2023-02-20T09:54:51.924Z,97276.44
2023-02-20T09:57:23.895Z,97270.44
2023-02-20T09:59:54.147Z,97273.75
2023-02-20T10:02:34.227Z,97283.78
2023-02-20T10:05:13.498Z,97271.97
2023-02-20T10:07:40.567Z,97272.28
2023-02-20T10:10:24.471Z,97275.69
2023-02-20T10:13:09.153Z,97268.75
2023-02-20T10:15:51.642Z,97260.81
2023-02-20T10:18:18.058Z,97264.53
2023-02-20T10:21:06.509Z,97264.53
2023-02-20T10:24:04.713Z,97261.03
2023-02-20T10:26:39.899Z,97274.78
2023-02-20T10:29:15.349Z,97270.41
2023-02-20T10:31:48.173Z,97268.81
2023-02-20T10:34:23.864Z,97270.19
2023-02-20T10:36:55.368Z,97271.78
2023-02-20T10:39:23.394Z,97263.63
2023-02-20T10:42:03.373Z,97266.81
2023-02-20T10:44:51.037Z,97268.34
2023-02-20T10:47:40.834Z,97267.34
2023-02-20T10:50:29.369Z,97263.69
2023-02-20T10:53:04.028Z,97260.50
2023-02-20T10:55:47.370Z,97260.97
2023-02-20T10:58:20.197Z,97261.19
2023-02-20T11:00:53.699Z,97259.09
2023-02-20T11:03:55.674Z,97262.25
2023-02-20T11:06:38.145Z,97266.56
2023-02-20T11:09:04.785Z,97261.97
2023-02-20T11:11:40.373Z,97258.94
2023-02-20T11:14:16.428Z,97272.22
2023-02-20T11:16:48.314Z,97262.22
2023-02-20T11:19:28.745Z,97264.22
2023-02-20T11:21:55.257Z,97273.81
2023-02-20T11:24:28.601Z,97265.25
2023-02-20T11:26:59.838Z,97270.06
2023-02-20T11:29:50.812Z,97265.78
2023-02-20T11:32:20.270Z,97267.13
2023-02-20T11:34:46.862Z,97266.38
2023-02-20T11:37:15.436Z,97265.06
2023-02-20T11:39:48.764Z,97276.03
2023-02-20T11:42:18.378Z,97281.03
2023-02-20T11:44:45.069Z,97277.31
2023-02-20T11:47:38.138Z,97281.34
2023-02-20T11:50:19.650Z,97282.72
2023-02-20T11:53:01.427Z,97283.78
2023-02-20T11:55:28.350Z,97285.22
2023-02-20T11:57:55.399Z,97284.53
2023-02-20T12:00:43.409Z,97286.81
2023-02-20T12:03:09.879Z,97284.50
2023-02-20T12:05:46.366Z,97289.72
2023-02-20T12:08:54.075Z,97291.13
2023-02-20T12:11:24.575Z,97293.41
2023-02-20T12:13:53.259Z,97285.66
2023-02-20T12:16:22.553Z,97284.97
2023-02-20T12:19:15.383Z,97286.28
2023-02-20T12:22:01.246Z,97285.69
2023-02-20T12:24:42.947Z,97276.72
2023-02-20T12:27:30.814Z,97281.72
2023-02-20T12:30:03.298Z,97285.97
2023-02-20T12:32:43.895Z,97282.53
2023-02-20T12:35:32.326Z,97283.59
2023-02-20T12:38:27.557Z,97282.69
2023-02-20T12:41:22.061Z,97281.84
2023-02-20T12:44:12.973Z,97280.25
2023-02-20T12:46:42.971Z,97282.59
2023-02-20T12:49:15.569Z,97288.16
2023-02-20T12:52:03.428Z,97284.41
2023-02-20T12:54:38.858Z,97284.28
2023-02-20T12:57:29.521Z,97283.09
2023-02-20T13:00:02.063Z,97285.22
2023-02-20T13:02:45.935Z,97279.34
2023-02-20T13:05:19.156Z,97285.06
2023-02-20T13:07:47.352Z,97285.47
2023-02-20T13:10:23.091Z,97277.72
2023-02-20T13:12:52.132Z,97273.31
2023-02-20T13:15:43.813Z,97278.72
2023-02-20T13:20:49.776Z,97286.53
2023-02-20T13:25:47.286Z,97290.50
2023-02-20T13:28:39.898Z,97306.81
2023-02-20T13:31:42.814Z,97302.41
2023-02-20T13:34:31.435Z,97307.72
2023-02-20T13:36:58.683Z,97296.75
2023-02-20T13:39:25.162Z,97292.38
2023-02-20T13:41:54.840Z,97295.38
2023-02-20T13:44:36.644Z,97301.53
2023-02-20T13:47:30.438Z,97299.31
2023-02-20T13:52:39.714Z,97307.34
2023-02-20T14:07:36.541Z,97326.69
2023-02-20T14:10:30.766Z,97322.94
2023-02-20T14:30:34.169Z,97333.88
2023-02-20T14:33:01.396Z,97333.09
2023-02-20T14:35:54.873Z,97335.25
2023-02-20T14:38:33.454Z,97342.13
2023-02-20T14:41:01.376Z,97346.22
2023-02-20T14:43:28.959Z,97341.88
2023-02-20T14:46:04.486Z,97343.47
2023-02-20T16:48:20.365Z,97320.81
2023-02-20T16:50:50.342Z,97321.59
2023-02-20T16:58:10.783Z,97313.53
2023-02-20T17:00:50.909Z,97305.25
2023-02-20T17:08:16.522Z,97296.63
2023-02-20T17:10:43.843Z,97299.66
2023-02-20T17:13:10.316Z,97292.75
2023-02-20T17:20:31.487Z,97289.75
2023-02-20T17:23:04.924Z,97290.31
2023-02-20T17:25:33.195Z,97292.00
2023-02-20T17:27:59.880Z,97284.50
2023-02-20T17:30:26.789Z,97284.66
2023-02-20T17:35:19.953Z,97283.69
2023-02-20T17:37:46.506Z,97286.34
2023-02-20T17:40:13.537Z,97284.84
2023-02-20T17:42:40.095Z,97278.72
2023-02-20T17:45:07.108Z,97276.94
2023-02-20T17:47:33.832Z,97276.94
2023-02-20T17:50:00.669Z,97271.78
2023-02-20T17:52:27.286Z,97273.81
2023-02-20T17:54:53.862Z,97262.34
2023-02-20T17:57:22.413Z,97261.19
2023-02-20T17:59:49.035Z,97259.88
2023-02-20T18:02:16.493Z,97254.34
2023-02-20T18:04:43.263Z,97258.88
2023-02-20T18:07:10.840Z,97265.28
2023-02-20T18:09:38.509Z,97265.50
2023-02-20T18:43:51.934Z,97241.88
2023-02-20T18:46:31.360Z,97239.75
2023-02-20T18:56:19.664Z,97241.47
2023-02-20T18:58:46.269Z,97234.38
2023-02-20T19:01:17.580Z,97235.59
2023-02-20T19:03:44.130Z,97230.19
2023-02-20T19:11:04.439Z,97232.28
2023-02-20T19:13:31.014Z,97232.06
2023-02-20T19:15:57.655Z,97228.53
2023-02-20T19:18:24.204Z,97227.56
2023-02-20T19:20:50.750Z,97226.81
2023-02-20T19:28:10.076Z,97224.47
2023-02-20T19:37:56.643Z,97214.44
2023-02-20T19:40:23.172Z,97210.78
2023-02-20T19:42:49.679Z,97202.56
2023-02-20T19:45:17.025Z,97203.69
2023-02-20T19:47:43.571Z,97197.78
2023-02-20T19:50:10.671Z,97200.13
2023-02-20T19:52:37.592Z,97199.88
2023-02-20T19:59:57.625Z,97193.28
2023-02-20T20:02:25.409Z,97189.69
2023-02-20T20:04:52.293Z,97186.66
2023-02-20T20:07:18.926Z,97183.75
2023-02-20T20:09:45.497Z,97182.38
2023-02-20T20:12:12.102Z,97179.88
2023-02-20T20:14:38.663Z,97181.75
2023-02-20T20:17:05.197Z,97176.75
2023-02-20T20:19:31.699Z,97176.13
2023-02-20T20:21:58.289Z,97173.84
2023-02-20T20:24:24.756Z,97172.00
2023-02-20T20:26:51.248Z,97164.84
2023-02-20T20:29:17.856Z,97151.91
2023-02-20T20:31:44.434Z,97149.47
2023-02-20T20:34:10.958Z,97147.06
2023-02-20T20:36:37.628Z,97146.16
2023-02-20T20:39:05.117Z,97151.00
2023-02-20T20:41:43.023Z,97143.72
2023-02-20T20:44:11.834Z,97139.44
2023-02-20T20:46:38.377Z,97131.56
2023-02-20T20:49:05.128Z,97132.19
2023-02-20T20:51:32.219Z,97126.88
2023-02-20T20:53:58.701Z,97123.53
2023-02-20T20:56:25.260Z,97115.19
2023-02-20T20:58:51.827Z,97120.31
2023-02-20T21:01:18.442Z,97113.94
2023-02-20T21:03:44.926Z,97112.78
2023-02-20T21:06:11.584Z,97110.72
2023-02-20T21:08:38.092Z,97105.78
2023-02-20T21:11:04.591Z,97108.97
2023-02-20T21:13:31.173Z,97099.50
2023-02-20T21:15:57.703Z,97099.78
2023-02-20T21:18:24.260Z,97096.00
2023-02-20T21:20:50.794Z,97097.16
2023-02-20T21:23:17.330Z,97088.03
2023-02-20T21:25:43.856Z,97092.47
2023-02-20T21:28:10.486Z,97089.00
2023-02-20T21:30:37.092Z,97078.44
2023-02-20T21:33:03.666Z,97081.97
2023-02-20T21:35:30.268Z,97079.06
2023-02-20T21:37:56.805Z,97083.69
2023-02-20T21:42:49.946Z,97083.41
2023-02-20T21:45:16.651Z,97075.66
2023-02-20T21:47:43.254Z,97073.78
2023-02-20T21:50:10.850Z,97068.31
2023-02-20T21:52:37.503Z,97080.91
2023-02-20T21:55:10.361Z,97069.91
2023-02-20T21:57:37.377Z,97067.03
2023-02-20T22:00:07.292Z,97067.50
2023-02-20T22:02:33.930Z,97057.75
2023-02-20T22:05:00.578Z,97055.28
2023-02-20T22:07:27.216Z,97054.44
2023-02-20T22:09:53.911Z,97051.63
2023-02-20T22:12:21.380Z,97047.13
2023-02-20T22:14:47.927Z,97038.41
2023-02-20T22:17:14.939Z,97034.31
2023-02-20T22:19:41.965Z,97024.59
2023-02-20T22:22:08.561Z,97026.22
2023-02-20T22:24:39.393Z,97022.44
2023-02-20T22:27:07.736Z,97022.09
2023-02-20T22:29:35.453Z,97018.41
2023-02-20T22:32:02.010Z,97023.41
2023-02-20T22:34:29.053Z,97016.84
2023-02-20T22:36:55.548Z,97009.94
2023-02-20T22:39:22.114Z,97008.97
2023-02-20T22:41:49.021Z,97011.19
2023-02-20T22:44:15.541Z,97008.97
2023-02-20T22:46:42.056Z,97001.44
2023-02-20T22:49:08.743Z,96993.88
2023-02-20T22:51:35.680Z,96994.22
2023-02-20T22:54:02.158Z,96996.53
2023-02-20T22:56:28.698Z,96994.22
2023-02-20T22:58:55.208Z,96979.78
2023-02-20T23:01:21.729Z,96989.47
2023-02-20T23:03:48.395Z,96980.41
2023-02-20T23:08:49.596Z,96978.19
2023-02-20T23:11:16.377Z,96972.75
2023-02-20T23:13:48.492Z,96971.00
2023-02-20T23:16:21.942Z,96971.00
2023-02-20T23:18:48.441Z,96969.50
2023-02-20T23:21:15.473Z,96965.41
2023-02-20T23:26:08.735Z,96957.44
2023-02-20T23:28:37.483Z,96953.16
2023-02-20T23:38:23.989Z,96936.28
2023-02-20T23:40:50.500Z,96934.16
2023-02-20T23:43:17.018Z,96936.22
2023-02-20T23:45:43.684Z,96929.94
2023-02-20T23:48:10.752Z,96927.19
2023-02-20T23:50:38.110Z,96920.47
2023-02-20T23:53:04.771Z,96917.81
2023-02-20T23:55:31.365Z,96911.34
2023-02-20T23:57:57.947Z,96910.63
